createdAt,value
2018-05-11T00:00:16.616Z,17.71
2018-05-11T00:02:42.847Z,17.83
2018-05-11T00:05:09.526Z,17.91
2018-05-11T00:07:35.754Z,17.93
2018-05-11T00:10:02.164Z,17.88
2018-05-11T00:12:28.466Z,17.93
2018-05-11T00:14:54.690Z,17.97
2018-05-11T00:17:21.301Z,17.92
2018-05-11T00:19:47.543Z,18.00
2018-05-11T00:22:13.897Z,18.09
2018-05-11T00:24:40.235Z,17.86
2018-05-11T00:27:07.612Z,17.85
2018-05-11T00:29:34.027Z,17.86
2018-05-11T00:32:00.241Z,17.74
2018-05-11T00:34:26.826Z,17.77
2018-05-11T00:36:53.121Z,17.83
2018-05-11T00:39:19.358Z,17.76
2018-05-11T00:41:45.758Z,17.79
2018-05-11T00:44:11.995Z,17.66
2018-05-11T00:46:38.444Z,17.59
2018-05-11T00:49:04.726Z,17.49
2018-05-11T00:51:30.989Z,17.52
2018-05-11T00:53:57.519Z,17.54
2018-05-11T00:56:23.755Z,17.52
2018-05-11T00:58:50.552Z,17.50
2018-05-11T01:01:16.817Z,17.48
2018-05-11T01:03:43.122Z,17.53
2018-05-11T01:06:09.698Z,17.56
2018-05-11T01:08:35.927Z,17.51
2018-05-11T01:11:02.426Z,17.50
2018-05-11T01:13:28.747Z,17.39
2018-05-11T01:15:55.003Z,17.36
2018-05-11T01:18:21.556Z,17.32
2018-05-11T01:20:47.786Z,17.29
2018-05-11T01:23:14.195Z,17.13
2018-05-11T01:25:40.503Z,17.02
2018-05-11T01:28:06.754Z,17.07
2018-05-11T01:30:33.329Z,17.15
2018-05-11T01:32:59.591Z,17.22
2018-05-11T01:35:25.918Z,17.24
2018-05-11T01:37:52.299Z,17.07
2018-05-11T01:40:18.555Z,17.05
2018-05-11T01:42:45.175Z,17.01
2018-05-11T01:45:11.469Z,17.03
2018-05-11T01:47:37.750Z,17.03
2018-05-11T01:50:04.219Z,17.00
2018-05-11T01:52:30.443Z,16.96
2018-05-11T01:54:57.111Z,17.03
2018-05-11T01:57:23.364Z,17.03
2018-05-11T01:59:49.673Z,17.15
2018-05-11T02:02:16.106Z,17.23
2018-05-11T02:04:42.325Z,17.38
2018-05-11T02:07:08.961Z,17.31
2018-05-11T02:09:35.201Z,17.28
2018-05-11T02:12:01.564Z,17.16
2018-05-11T02:14:27.946Z,17.18
2018-05-11T02:16:54.250Z,17.27
2018-05-11T02:19:20.787Z,17.25
2018-05-11T02:21:47.034Z,17.28
2018-05-11T02:24:13.289Z,17.34
2018-05-11T02:26:39.799Z,17.32
2018-05-11T02:29:06.115Z,17.29
2018-05-11T02:31:32.546Z,17.29
2018-05-11T02:33:58.820Z,17.21
2018-05-11T02:36:25.069Z,17.08
2018-05-11T02:38:51.734Z,17.13
2018-05-11T02:41:17.998Z,17.11
2018-05-11T02:43:44.467Z,17.08
2018-05-11T02:46:10.803Z,17.13
2018-05-11T02:48:37.022Z,17.16
2018-05-11T02:51:03.619Z,17.17
2018-05-11T02:53:29.834Z,17.15
2018-05-11T02:55:56.202Z,17.19
2018-05-11T02:58:22.496Z,17.26
2018-05-11T03:00:48.738Z,17.30
2018-05-11T03:03:15.336Z,17.30
2018-05-11T03:05:41.633Z,17.30
2018-05-11T03:08:08.012Z,17.30
2018-05-11T03:10:34.453Z,17.35
2018-05-11T03:13:00.683Z,17.32
2018-05-11T03:15:27.227Z,17.30
2018-05-11T03:17:53.601Z,17.30
2018-05-11T03:20:19.943Z,17.25
2018-05-11T03:22:46.377Z,17.18
2018-05-11T03:25:12.626Z,17.23
2018-05-11T03:27:39.210Z,17.28
2018-05-11T03:30:05.551Z,17.22
2018-05-11T03:32:31.846Z,17.19
2018-05-11T03:34:58.279Z,17.13
2018-05-11T03:37:24.519Z,17.01
2018-05-11T03:39:51.133Z,17.01
2018-05-11T03:42:18.542Z,17.02
2018-05-11T03:44:45.185Z,17.05
2018-05-11T03:47:11.443Z,17.01
2018-05-11T03:49:37.744Z,17.10
2018-05-11T03:52:04.134Z,17.04
2018-05-11T03:54:30.358Z,17.03
2018-05-11T03:56:56.944Z,16.98
2018-05-11T03:59:23.192Z,16.93
2018-05-11T04:02:01.423Z,16.92
2018-05-11T04:04:39.918Z,16.92
2018-05-11T04:07:18.264Z,16.88
2018-05-11T04:09:44.799Z,16.82
2018-05-11T04:12:11.110Z,16.68
2018-05-11T04:14:37.322Z,16.60
2018-05-11T04:17:03.799Z,16.52
2018-05-11T04:19:31.174Z,16.54
2018-05-11T04:21:57.635Z,16.39
2018-05-11T04:24:23.885Z,16.44
2018-05-11T04:26:50.195Z,16.39
2018-05-11T04:29:16.510Z,16.15
2018-05-11T04:31:42.722Z,16.00
2018-05-11T04:34:09.292Z,16.03
2018-05-11T04:36:35.516Z,15.99
2018-05-11T04:39:01.913Z,15.84
2018-05-11T04:41:28.294Z,15.79
2018-05-11T04:43:54.548Z,15.93
2018-05-11T04:46:21.083Z,15.95
2018-05-11T04:48:47.314Z,15.83
2018-05-11T04:51:13.546Z,15.78
2018-05-11T04:53:39.958Z,15.77
2018-05-11T04:56:06.548Z,15.76
2018-05-11T04:58:33.039Z,15.70
2018-05-11T05:00:59.580Z,15.78
2018-05-11T05:03:26.219Z,15.65
2018-05-11T05:05:52.831Z,15.52
2018-05-11T05:08:19.355Z,15.38
2018-05-11T05:10:45.943Z,15.41
2018-05-11T05:13:12.160Z,15.49
2018-05-11T05:15:38.387Z,15.59
2018-05-11T05:18:04.635Z,15.72
2018-05-11T05:20:30.859Z,15.58
2018-05-11T05:22:57.103Z,15.67
2018-05-11T05:25:23.324Z,15.69
2018-05-11T05:27:49.622Z,15.78
2018-05-11T05:30:15.862Z,15.74
2018-05-11T05:32:42.088Z,15.87
2018-05-11T05:35:08.340Z,15.88
2018-05-11T05:37:34.555Z,15.92
2018-05-11T05:40:00.806Z,15.84
2018-05-11T05:42:27.022Z,15.94
2018-05-11T05:44:53.272Z,16.00
2018-05-11T05:47:19.496Z,16.15
2018-05-11T05:49:45.719Z,16.18
2018-05-11T05:52:11.974Z,16.04
2018-05-11T05:54:38.195Z,16.01
2018-05-11T05:57:04.434Z,16.04
2018-05-11T05:59:31.240Z,16.04
2018-05-11T06:01:57.515Z,16.13
2018-05-11T06:04:23.726Z,16.20
2018-05-11T06:06:50.009Z,16.10
2018-05-11T06:09:16.231Z,16.22
2018-05-11T06:11:42.447Z,16.29
2018-05-11T06:14:08.698Z,16.24
2018-05-11T06:16:34.919Z,16.28
2018-05-11T06:19:01.167Z,16.25
2018-05-11T06:21:27.393Z,16.21
2018-05-11T06:23:53.638Z,16.35
2018-05-11T06:26:19.871Z,16.34
2018-05-11T06:28:46.135Z,16.31
2018-05-11T06:31:12.354Z,16.31
2018-05-11T06:33:38.631Z,16.42
2018-05-11T06:36:04.859Z,16.31
2018-05-11T06:38:31.086Z,16.41
2018-05-11T06:40:57.333Z,16.55
2018-05-11T06:43:23.571Z,16.72
2018-05-11T06:45:49.824Z,16.91
2018-05-11T06:48:16.047Z,17.20
2018-05-11T06:50:42.298Z,17.29
2018-05-11T06:53:08.522Z,17.35
2018-05-11T06:55:34.791Z,17.49
2018-05-11T06:58:01.107Z,17.34
2018-05-11T07:00:27.339Z,17.56
2018-05-11T07:02:53.591Z,17.76
2018-05-11T07:05:19.808Z,17.89
2018-05-11T07:07:46.092Z,18.08
2018-05-11T07:10:12.294Z,18.37
2018-05-11T07:12:38.543Z,18.39
2018-05-11T07:15:04.794Z,18.48
2018-05-11T07:17:31.047Z,18.57
2018-05-11T07:19:57.267Z,18.75
2018-05-11T07:22:23.495Z,18.72
2018-05-11T07:24:49.746Z,18.57
2018-05-11T07:27:15.979Z,18.45
2018-05-11T07:29:42.227Z,18.39
2018-05-11T07:32:08.447Z,18.73
2018-05-11T07:34:34.699Z,18.74
2018-05-11T07:37:00.934Z,18.67
2018-05-11T07:39:27.190Z,18.59
2018-05-11T07:41:53.463Z,18.32
2018-05-11T07:44:19.722Z,18.27
2018-05-11T07:46:45.943Z,18.26
2018-05-11T07:49:12.183Z,18.12
2018-05-11T07:51:38.475Z,18.21
2018-05-11T07:54:04.699Z,18.20
2018-05-11T07:56:30.958Z,18.16
2018-05-11T07:58:57.183Z,18.08
2018-05-11T08:01:23.431Z,18.02
2018-05-11T08:03:49.743Z,18.06
2018-05-11T08:06:15.923Z,18.03
2018-05-11T08:08:42.162Z,17.82
2018-05-11T08:11:08.437Z,17.85
2018-05-11T08:13:34.661Z,17.86
2018-05-11T08:16:00.899Z,17.68
2018-05-11T08:18:27.126Z,17.65
2018-05-11T08:20:53.347Z,17.80
2018-05-11T08:23:19.595Z,17.84
2018-05-11T08:25:45.812Z,17.69
2018-05-11T08:28:12.067Z,17.62
2018-05-11T08:30:38.346Z,17.63
2018-05-11T08:33:04.741Z,17.65
2018-05-11T08:35:30.921Z,17.59
2018-05-11T08:37:57.139Z,17.60
2018-05-11T08:40:23.462Z,17.95
2018-05-11T08:42:49.682Z,18.19
2018-05-11T08:45:15.918Z,18.08
2018-05-11T08:47:42.142Z,18.05
2018-05-11T08:50:08.390Z,17.97
2018-05-11T08:52:34.610Z,18.12
2018-05-11T08:55:00.895Z,18.35
2018-05-11T08:57:27.139Z,18.32
2018-05-11T08:59:53.354Z,18.82
2018-05-11T09:02:19.618Z,19.50
2018-05-11T09:04:45.862Z,20.52
2018-05-11T09:07:12.111Z,21.38
2018-05-11T09:09:38.332Z,21.03
2018-05-11T09:12:04.591Z,21.29
2018-05-11T09:14:30.846Z,21.54
2018-05-11T09:16:57.109Z,21.49
2018-05-11T09:19:23.386Z,21.60
2018-05-11T09:21:49.618Z,21.72
2018-05-11T09:24:15.871Z,21.60
2018-05-11T09:26:42.197Z,21.19
2018-05-11T09:29:08.479Z,21.65
2018-05-11T09:31:34.706Z,21.91
2018-05-11T09:34:00.961Z,21.94
2018-05-11T09:36:27.198Z,21.62
2018-05-11T09:38:53.461Z,21.17
2018-05-11T09:41:19.677Z,20.72
2018-05-11T09:43:45.911Z,20.24
2018-05-11T09:46:12.166Z,20.20
2018-05-11T09:48:38.397Z,20.34
2018-05-11T09:51:04.644Z,20.55
2018-05-11T09:53:30.925Z,20.48
2018-05-11T09:55:57.178Z,20.44
2018-05-11T09:58:23.405Z,20.48
2018-05-11T10:00:49.742Z,20.49
2018-05-11T10:03:15.935Z,20.57
2018-05-11T10:05:42.168Z,20.87
2018-05-11T10:08:08.422Z,21.36
2018-05-11T10:10:34.656Z,21.91
2018-05-11T10:13:00.912Z,22.19
2018-05-11T10:15:27.142Z,22.68
2018-05-11T10:17:53.386Z,23.11
2018-05-11T10:20:19.620Z,23.11
2018-05-11T10:22:45.863Z,23.51
2018-05-11T10:25:12.127Z,24.38
2018-05-11T10:27:38.352Z,24.77
2018-05-11T10:30:04.623Z,24.75
2018-05-11T10:32:30.845Z,25.49
2018-05-11T10:34:57.090Z,25.79
2018-05-11T10:37:23.322Z,25.58
2018-05-11T10:39:49.658Z,25.30
2018-05-11T10:42:15.810Z,25.30
2018-05-11T10:44:42.041Z,25.46
2018-05-11T10:47:08.287Z,25.93
2018-05-11T10:49:34.531Z,26.72
2018-05-11T10:52:00.783Z,26.59
2018-05-11T10:54:27.026Z,26.27
2018-05-11T10:56:53.359Z,25.93
2018-05-11T10:59:19.590Z,26.02
2018-05-11T11:01:45.852Z,25.38
2018-05-11T11:04:12.099Z,25.71
2018-05-11T11:06:38.335Z,25.57
2018-05-11T11:09:04.611Z,24.71
2018-05-11T11:11:30.867Z,24.16
2018-05-11T11:13:57.093Z,24.85
2018-05-11T11:16:23.421Z,25.87
2018-05-11T11:18:49.662Z,27.59
2018-05-11T11:21:15.886Z,28.09
2018-05-11T11:23:42.151Z,27.04
2018-05-11T11:26:08.374Z,26.87
2018-05-11T11:28:34.618Z,26.93
2018-05-11T11:31:00.843Z,26.49
2018-05-11T11:33:27.090Z,25.97
2018-05-11T11:35:53.448Z,25.69
2018-05-11T11:38:19.741Z,25.71
2018-05-11T11:40:46.055Z,25.69
2018-05-11T11:43:12.277Z,25.08
2018-05-11T11:45:38.542Z,24.98
2018-05-11T11:48:04.771Z,25.48
2018-05-11T11:50:31.021Z,25.60
2018-05-11T11:52:57.247Z,25.48
2018-05-11T11:55:23.510Z,25.10
2018-05-11T11:57:49.731Z,24.57
2018-05-11T12:00:16.016Z,24.07
2018-05-11T12:02:42.262Z,23.89
2018-05-11T12:05:08.495Z,23.75
2018-05-11T12:07:34.762Z,23.65
2018-05-11T12:10:00.998Z,23.68
2018-05-11T12:12:27.250Z,23.75
2018-05-11T12:14:53.482Z,23.72
2018-05-11T12:17:19.740Z,23.63
2018-05-11T12:19:45.978Z,23.54
2018-05-11T12:22:12.246Z,23.59
2018-05-11T12:24:38.501Z,23.49
2018-05-11T12:27:04.742Z,23.35
2018-05-11T12:29:31.031Z,23.26
2018-05-11T12:31:57.258Z,23.18
2018-05-11T12:34:23.596Z,22.88
2018-05-11T12:36:49.826Z,22.79
2018-05-11T12:39:16.102Z,22.72
2018-05-11T12:41:42.354Z,22.62
2018-05-11T12:44:08.627Z,22.59
2018-05-11T12:46:34.955Z,22.55
2018-05-11T12:49:01.134Z,22.51
2018-05-11T12:51:27.469Z,22.54
2018-05-11T12:53:53.714Z,22.50
2018-05-11T12:56:19.966Z,22.49
2018-05-11T12:58:46.208Z,22.65
2018-05-11T13:01:12.474Z,22.95
2018-05-11T13:03:38.723Z,23.12
2018-05-11T13:06:05.011Z,23.11
2018-05-11T13:08:31.239Z,22.97
2018-05-11T13:10:57.499Z,23.02
2018-05-11T13:13:23.759Z,23.09
2018-05-11T13:15:50.003Z,23.11
2018-05-11T13:18:16.259Z,23.08
2018-05-11T13:20:42.552Z,23.13
2018-05-11T13:23:08.811Z,23.39
2018-05-11T13:25:35.052Z,23.71
2018-05-11T13:28:01.358Z,24.53
2018-05-11T13:30:27.691Z,24.81
2018-05-11T13:32:53.870Z,24.95
2018-05-11T13:35:20.146Z,24.80
2018-05-11T13:37:46.393Z,24.67
2018-05-11T13:40:12.667Z,24.58
2018-05-11T13:42:38.896Z,24.64
2018-05-11T13:45:05.149Z,24.76
2018-05-11T13:47:31.382Z,24.64
2018-05-11T13:49:57.618Z,24.56
2018-05-11T13:52:23.895Z,24.56
2018-05-11T13:54:50.155Z,24.52
2018-05-11T13:57:16.410Z,24.50
2018-05-11T13:59:42.634Z,24.58
2018-05-11T14:02:08.891Z,24.96
2018-05-11T14:04:35.132Z,25.18
2018-05-11T14:07:01.423Z,25.60
2018-05-11T14:09:27.650Z,25.77
2018-05-11T14:11:53.874Z,27.17
2018-05-11T14:14:20.127Z,28.44
2018-05-11T14:16:46.354Z,29.84
2018-05-11T14:19:12.607Z,29.42
2018-05-11T14:21:38.849Z,28.17
2018-05-11T14:24:05.119Z,28.06
2018-05-11T14:26:31.418Z,27.10
2018-05-11T14:28:57.726Z,26.58
2018-05-11T14:31:24.007Z,26.15
2018-05-11T14:33:50.239Z,26.03
2018-05-11T14:36:16.534Z,25.85
2018-05-11T14:38:42.765Z,25.76
2018-05-11T14:41:09.011Z,25.66
2018-05-11T14:43:35.233Z,26.28
2018-05-11T14:46:01.483Z,26.25
2018-05-11T14:48:27.975Z,26.69
2018-05-11T14:50:54.576Z,28.42
2018-05-11T14:53:21.075Z,29.31
2018-05-11T14:55:47.572Z,29.93
2018-05-11T14:58:14.126Z,30.32
2018-05-11T15:00:40.735Z,29.80
2018-05-11T15:03:07.307Z,29.69
2018-05-11T15:05:33.871Z,29.94
2018-05-11T15:08:00.427Z,29.70
2018-05-11T15:10:26.954Z,28.79
2018-05-11T15:12:53.477Z,28.10
2018-05-11T15:15:20.035Z,27.26
2018-05-11T15:17:46.560Z,26.72
2018-05-11T15:20:13.288Z,26.26
2018-05-11T15:22:39.566Z,25.92
2018-05-11T15:25:05.839Z,25.58
2018-05-11T15:27:32.165Z,25.37
2018-05-11T15:29:58.414Z,25.07
2018-05-11T15:32:24.710Z,24.94
2018-05-11T15:34:51.077Z,24.80
2018-05-11T15:37:17.326Z,24.79
2018-05-11T15:39:43.716Z,24.75
2018-05-11T15:42:09.971Z,24.69
2018-05-11T15:44:36.205Z,24.56
2018-05-11T15:47:02.542Z,24.49
2018-05-11T15:49:28.779Z,24.42
2018-05-11T15:51:55.027Z,24.31
2018-05-11T15:54:21.256Z,24.16
2018-05-11T15:56:47.510Z,24.07
2018-05-11T15:59:13.735Z,24.10
2018-05-11T16:01:40.142Z,24.09
2018-05-11T16:04:06.417Z,24.08
2018-05-11T16:06:32.734Z,23.88
2018-05-11T16:08:59.097Z,23.80
2018-05-11T16:11:25.334Z,23.62
2018-05-11T16:13:51.594Z,23.39
2018-05-11T16:16:17.833Z,23.28
2018-05-11T16:18:44.086Z,23.25
2018-05-11T16:21:10.450Z,23.21
2018-05-11T16:23:36.706Z,23.26
2018-05-11T16:26:02.978Z,23.32
2018-05-11T16:28:29.314Z,23.25
2018-05-11T16:30:55.577Z,23.14
2018-05-11T16:33:21.922Z,23.04
2018-05-11T16:35:48.214Z,22.88
2018-05-11T16:38:14.447Z,22.81
2018-05-11T16:40:40.947Z,22.75
2018-05-11T16:43:07.178Z,22.67
2018-05-11T16:45:33.434Z,22.55
2018-05-11T16:47:59.853Z,22.53
2018-05-11T16:50:26.103Z,22.43
2018-05-11T16:52:52.344Z,22.35
2018-05-11T16:55:18.897Z,22.28
2018-05-11T16:57:45.285Z,22.25
2018-05-11T17:00:11.594Z,22.17
2018-05-11T17:02:46.079Z,22.13
2018-05-11T17:05:12.428Z,22.09
2018-05-11T17:07:38.702Z,22.10
2018-05-11T17:10:05.013Z,22.05
2018-05-11T17:12:31.279Z,21.98
2018-05-11T17:14:57.595Z,21.96
2018-05-11T17:17:23.870Z,21.93
2018-05-11T17:19:50.128Z,21.86
2018-05-11T17:22:16.384Z,21.81
2018-05-11T17:24:42.702Z,21.73
2018-05-11T17:27:09.110Z,21.63
2018-05-11T17:29:35.428Z,21.51
2018-05-11T17:32:01.698Z,21.41
2018-05-11T17:34:27.945Z,21.35
2018-05-11T17:36:54.205Z,21.27
2018-05-11T17:39:20.434Z,21.20
2018-05-11T17:41:46.731Z,21.14
2018-05-11T17:44:12.978Z,21.06
2018-05-11T17:46:39.244Z,20.98
2018-05-11T17:49:05.487Z,20.88
2018-05-11T17:51:31.770Z,20.85
2018-05-11T17:53:58.015Z,20.80
2018-05-11T17:56:24.251Z,20.71
2018-05-11T17:58:50.510Z,20.62
2018-05-11T18:01:16.771Z,20.55
2018-05-11T18:03:43.035Z,20.50
2018-05-11T18:06:09.279Z,20.43
2018-05-11T18:08:35.542Z,20.43
2018-05-11T18:11:01.791Z,20.33
2018-05-11T18:13:28.020Z,20.21
2018-05-11T18:15:54.329Z,20.18
2018-05-11T18:18:20.543Z,20.14
2018-05-11T18:20:46.819Z,20.06
2018-05-11T18:23:13.067Z,20.02
2018-05-11T18:25:39.322Z,19.95
2018-05-11T18:28:05.551Z,19.90
2018-05-11T18:30:31.823Z,19.80
2018-05-11T18:32:58.075Z,19.75
2018-05-11T18:35:24.303Z,19.73
2018-05-11T18:37:50.557Z,19.64
2018-05-11T18:40:16.901Z,19.59
2018-05-11T18:42:43.086Z,19.53
2018-05-11T18:45:09.331Z,19.48
2018-05-11T18:47:35.863Z,19.39
2018-05-11T18:50:02.138Z,19.34
2018-05-11T18:52:28.485Z,19.23
2018-05-11T18:54:54.714Z,19.12
2018-05-11T18:57:20.975Z,19.11
2018-05-11T18:59:47.241Z,19.08
2018-05-11T19:02:13.465Z,19.03
2018-05-11T19:04:39.698Z,18.97
2018-05-11T19:07:06.008Z,18.89
2018-05-11T19:09:32.251Z,18.83
2018-05-11T19:11:58.490Z,18.80
2018-05-11T19:14:24.744Z,18.77
2018-05-11T19:16:50.965Z,18.78
2018-05-11T19:19:17.228Z,18.73
2018-05-11T19:21:43.517Z,18.77
2018-05-11T19:24:09.729Z,18.83
2018-05-11T19:26:36.035Z,18.86
2018-05-11T19:29:02.279Z,18.84
2018-05-11T19:31:28.596Z,18.88
2018-05-11T19:33:54.830Z,18.95
2018-05-11T19:36:21.094Z,18.99
2018-05-11T19:38:47.345Z,19.02
2018-05-11T19:41:13.566Z,19.03
2018-05-11T19:43:39.806Z,19.10
2018-05-11T19:46:06.035Z,19.09
2018-05-11T19:48:32.290Z,19.08
2018-05-11T19:50:58.510Z,19.00
2018-05-11T19:53:24.778Z,19.00
2018-05-11T19:55:51.006Z,19.01
2018-05-11T19:58:17.258Z,19.00
2018-05-11T20:00:43.477Z,19.04
2018-05-11T20:03:09.698Z,19.03
2018-05-11T20:05:35.987Z,18.97
2018-05-11T20:08:02.308Z,18.98
2018-05-11T20:10:28.692Z,18.90
2018-05-11T20:12:54.914Z,18.87
2018-05-11T20:15:21.176Z,18.84
2018-05-11T20:17:47.404Z,18.84
2018-05-11T20:20:13.658Z,18.86
2018-05-11T20:22:39.878Z,18.87
2018-05-11T20:25:06.163Z,18.94
2018-05-11T20:27:32.378Z,18.96
2018-05-11T20:29:59.508Z,18.96
2018-05-11T20:32:25.801Z,18.82
2018-05-11T20:34:52.027Z,18.79
2018-05-11T20:37:18.287Z,18.83
2018-05-11T20:39:44.542Z,18.84
2018-05-11T20:42:10.865Z,18.75
2018-05-11T20:44:37.114Z,18.74
2018-05-11T20:47:03.412Z,18.68
2018-05-11T20:49:29.681Z,18.76
2018-05-11T20:51:56.127Z,18.78
2018-05-11T20:54:22.383Z,18.72
2018-05-11T20:56:48.878Z,18.69
2018-05-11T20:59:15.135Z,18.55
2018-05-11T21:01:41.401Z,18.50
2018-05-11T21:04:07.779Z,18.54
2018-05-11T21:06:34.075Z,18.47
2018-05-11T21:09:00.364Z,18.41
2018-05-11T21:11:26.649Z,18.39
2018-05-11T21:13:52.868Z,18.30
2018-05-11T21:16:19.122Z,18.24
2018-05-11T21:18:45.399Z,18.13
2018-05-11T21:21:11.762Z,18.00
2018-05-11T21:23:38.008Z,17.92
2018-05-11T21:26:04.381Z,17.82
2018-05-11T21:28:30.673Z,17.81
2018-05-11T21:30:57.035Z,17.78
2018-05-11T21:33:23.396Z,17.71
2018-05-11T21:35:49.587Z,17.71
2018-05-11T21:38:15.835Z,17.64
2018-05-11T21:40:42.059Z,17.62
2018-05-11T21:43:09.179Z,17.49
2018-05-11T21:45:35.561Z,17.41
2018-05-11T21:48:01.831Z,17.33
2018-05-11T21:50:28.074Z,17.31
2018-05-11T21:52:54.662Z,17.32
2018-05-11T21:55:20.904Z,17.27
2018-05-11T21:57:47.286Z,17.19
2018-05-11T22:00:13.660Z,17.22
2018-05-11T22:02:39.855Z,17.25
2018-05-11T22:05:06.333Z,17.22
2018-05-11T22:07:32.773Z,17.18
2018-05-11T22:09:59.249Z,17.16
2018-05-11T22:12:25.536Z,17.09
2018-05-11T22:14:51.836Z,17.02
2018-05-11T22:17:18.272Z,17.03
2018-05-11T22:19:44.534Z,16.92
2018-05-11T22:22:10.890Z,16.93
2018-05-11T22:24:37.299Z,16.86
2018-05-11T22:27:03.608Z,16.92
2018-05-11T22:29:30.027Z,16.84
2018-05-11T22:31:56.347Z,16.83
2018-05-11T22:34:22.673Z,16.80
2018-05-11T22:36:49.086Z,16.75
2018-05-11T22:39:15.314Z,16.73
2018-05-11T22:41:42.759Z,16.70
2018-05-11T22:44:08.999Z,16.72
2018-05-11T22:46:35.230Z,16.74
2018-05-11T22:49:01.499Z,16.72
2018-05-11T22:51:28.060Z,16.67
2018-05-11T22:53:54.335Z,16.66
2018-05-11T22:56:20.681Z,16.66
2018-05-11T22:58:47.063Z,16.71
2018-05-11T23:01:13.287Z,16.70
2018-05-11T23:03:40.009Z,16.64
2018-05-11T23:06:06.190Z,16.58
2018-05-11T23:08:32.589Z,16.57
2018-05-11T23:10:59.011Z,16.56
2018-05-11T23:13:25.275Z,16.57
2018-05-11T23:15:51.938Z,16.57
2018-05-11T23:18:18.184Z,16.53
2018-05-11T23:20:44.476Z,16.53
2018-05-11T23:23:10.829Z,16.55
2018-05-11T23:25:37.078Z,16.52
2018-05-11T23:28:03.667Z,16.51
2018-05-11T23:30:29.921Z,16.50
2018-05-11T23:32:56.208Z,16.46
2018-05-11T23:35:22.634Z,16.45
2018-05-11T23:37:48.886Z,16.54
2018-05-11T23:40:15.395Z,16.53
2018-05-11T23:42:41.682Z,16.52
2018-05-11T23:45:08.215Z,16.52
2018-05-11T23:47:34.518Z,16.54
2018-05-11T23:50:00.848Z,16.57
2018-05-11T23:52:27.199Z,16.49
2018-05-11T23:54:53.453Z,16.42
2018-05-11T23:57:20.065Z,16.35
2018-05-11T23:59:46.318Z,16.39
